sensor_id;sensor_type;location;lat;lon;timestamp;temperature;humidity
53645;DHT22;39547;45.554;12.068;2023-12-20T00:02:18;3.70;92.00
53645;DHT22;39547;45.554;12.068;2023-12-20T00:08:20;3.70;92.00
53645;DHT22;39547;45.554;12.068;2023-12-20T00:14:21;3.70;92.00
53645;DHT22;39547;45.554;12.068;2023-12-20T00:20:23;3.60;92.00
53645;DHT22;39547;45.554;12.068;2023-12-20T00:26:24;3.60;92.00
53645;DHT22;39547;45.554;12.068;2023-12-20T00:32:26;3.60;92.00
53645;DHT22;39547;45.554;12.068;2023-12-20T00:38:28;3.50;91.70
53645;DHT22;39547;45.554;12.068;2023-12-20T00:44:29;3.40;91.60
53645;DHT22;39547;45.554;12.068;2023-12-20T00:50:31;3.20;90.90
53645;DHT22;39547;45.554;12.068;2023-12-20T00:56:32;3.20;91.80
53645;DHT22;39547;45.554;12.068;2023-12-20T01:02:34;3.20;92.00
53645;DHT22;39547;45.554;12.068;2023-12-20T01:08:35;3.20;92.00
53645;DHT22;39547;45.554;12.068;2023-12-20T01:14:38;3.30;92.00
53645;DHT22;39547;45.554;12.068;2023-12-20T01:20:40;3.30;92.00
53645;DHT22;39547;45.554;12.068;2023-12-20T01:26:43;3.20;92.00
53645;DHT22;39547;45.554;12.068;2023-12-20T01:32:44;3.20;91.90
53645;DHT22;39547;45.554;12.068;2023-12-20T01:38:46;3.20;92.00
53645;DHT22;39547;45.554;12.068;2023-12-20T01:44:48;3.20;92.00
53645;DHT22;39547;45.554;12.068;2023-12-20T01:50:49;3.20;92.00
53645;DHT22;39547;45.554;12.068;2023-12-20T01:56:51;3.20;91.90
53645;DHT22;39547;45.554;12.068;2023-12-20T02:02:53;3.10;91.50
53645;DHT22;39547;45.554;12.068;2023-12-20T02:08:57;3.10;91.80
53645;DHT22;39547;45.554;12.068;2023-12-20T02:14:58;3.00;91.40
53645;DHT22;39547;45.554;12.068;2023-12-20T02:21:00;2.90;91.60
53645;DHT22;39547;45.554;12.068;2023-12-20T02:27:02;2.90;91.80
53645;DHT22;39547;45.554;12.068;2023-12-20T02:33:08;2.80;91.80
53645;DHT22;39547;45.554;12.068;2023-12-20T02:39:11;2.80;91.80
53645;DHT22;39547;45.554;12.068;2023-12-20T02:45:13;2.80;91.80
53645;DHT22;39547;45.554;12.068;2023-12-20T02:51:14;2.80;91.90
53645;DHT22;39547;45.554;12.068;2023-12-20T02:57:16;2.70;91.50
53645;DHT22;39547;45.554;12.068;2023-12-20T03:03:18;2.70;91.50
53645;DHT22;39547;45.554;12.068;2023-12-20T03:09:19;2.70;91.80
53645;DHT22;39547;45.554;12.068;2023-12-20T03:15:21;2.60;91.70
53645;DHT22;39547;45.554;12.068;2023-12-20T03:21:23;2.50;91.50
53645;DHT22;39547;45.554;12.068;2023-12-20T03:27:24;2.50;91.50
53645;DHT22;39547;45.554;12.068;2023-12-20T03:33:25;2.50;91.80
53645;DHT22;39547;45.554;12.068;2023-12-20T03:39:27;2.50;91.80
53645;DHT22;39547;45.554;12.068;2023-12-20T03:45:28;2.60;91.90
53645;DHT22;39547;45.554;12.068;2023-12-20T03:51:29;2.60;91.80
53645;DHT22;39547;45.554;12.068;2023-12-20T03:57:31;2.60;91.80
53645;DHT22;39547;45.554;12.068;2023-12-20T04:03:33;2.60;91.80
53645;DHT22;39547;45.554;12.068;2023-12-20T04:09:34;2.60;91.90
53645;DHT22;39547;45.554;12.068;2023-12-20T04:15:37;2.60;91.90
53645;DHT22;39547;45.554;12.068;2023-12-20T04:21:38;2.50;91.90
53645;DHT22;39547;45.554;12.068;2023-12-20T04:27:39;2.50;91.80
53645;DHT22;39547;45.554;12.068;2023-12-20T04:33:41;2.40;91.50
53645;DHT22;39547;45.554;12.068;2023-12-20T04:39:42;2.50;92.00
53645;DHT22;39547;45.554;12.068;2023-12-20T04:45:44;2.60;92.30
53645;DHT22;39547;45.554;12.068;2023-12-20T04:51:46;2.60;92.30
53645;DHT22;39547;45.554;12.068;2023-12-20T04:57:47;2.70;92.70
53645;DHT22;39547;45.554;12.068;2023-12-20T05:03:49;2.80;92.80
53645;DHT22;39547;45.554;12.068;2023-12-20T05:09:51;2.90;92.90
53645;DHT22;39547;45.554;12.068;2023-12-20T05:15:53;2.90;92.90
53645;DHT22;39547;45.554;12.068;2023-12-20T05:21:54;2.90;92.80
53645;DHT22;39547;45.554;12.068;2023-12-20T05:27:55;3.10;93.00
53645;DHT22;39547;45.554;12.068;2023-12-20T05:33:57;3.20;93.10
53645;DHT22;39547;45.554;12.068;2023-12-20T05:39:59;3.20;93.10
53645;DHT22;39547;45.554;12.068;2023-12-20T05:46:01;3.20;93.10
53645;DHT22;39547;45.554;12.068;2023-12-20T05:52:02;3.20;93.20
53645;DHT22;39547;45.554;12.068;2023-12-20T05:58:04;3.30;93.30
53645;DHT22;39547;45.554;12.068;2023-12-20T06:04:06;3.30;93.20
53645;DHT22;39547;45.554;12.068;2023-12-20T06:10:08;3.40;93.30
53645;DHT22;39547;45.554;12.068;2023-12-20T06:16:09;3.40;93.00
53645;DHT22;39547;45.554;12.068;2023-12-20T06:22:10;3.30;92.90
53645;DHT22;39547;45.554;12.068;2023-12-20T06:28:12;3.20;92.60
53645;DHT22;39547;45.554;12.068;2023-12-20T06:34:16;3.30;93.20
53645;DHT22;39547;45.554;12.068;2023-12-20T06:40:17;3.40;93.40
53645;DHT22;39547;45.554;12.068;2023-12-20T06:46:19;3.50;93.60
53645;DHT22;39547;45.554;12.068;2023-12-20T06:52:20;3.50;93.50
53645;DHT22;39547;45.554;12.068;2023-12-20T06:58:22;3.60;93.70
53645;DHT22;39547;45.554;12.068;2023-12-20T07:04:24;3.70;93.60
53645;DHT22;39547;45.554;12.068;2023-12-20T07:10:26;3.70;93.50
53645;DHT22;39547;45.554;12.068;2023-12-20T07:16:28;3.60;93.20
53645;DHT22;39547;45.554;12.068;2023-12-20T07:22:31;3.70;93.70
53645;DHT22;39547;45.554;12.068;2023-12-20T07:28:33;3.80;93.90
53645;DHT22;39547;45.554;12.068;2023-12-20T07:34:34;3.90;93.80
53645;DHT22;39547;45.554;12.068;2023-12-20T07:40:36;3.90;93.90
53645;DHT22;39547;45.554;12.068;2023-12-20T07:46:38;4.00;94.00
53645;DHT22;39547;45.554;12.068;2023-12-20T07:52:40;4.00;93.80
53645;DHT22;39547;45.554;12.068;2023-12-20T07:58:41;4.10;94.00
53645;DHT22;39547;45.554;12.068;2023-12-20T08:04:43;4.10;93.60
53645;DHT22;39547;45.554;12.068;2023-12-20T08:10:44;4.20;94.00
53645;DHT22;39547;45.554;12.068;2023-12-20T08:16:47;4.30;94.00
53645;DHT22;39547;45.554;12.068;2023-12-20T08:22:48;4.30;94.00
53645;DHT22;39547;45.554;12.068;2023-12-20T08:28:50;4.40;94.10
53645;DHT22;39547;45.554;12.068;2023-12-20T08:34:51;4.60;94.30
53645;DHT22;39547;45.554;12.068;2023-12-20T08:40:54;4.60;93.60
53645;DHT22;39547;45.554;12.068;2023-12-20T08:46:55;4.70;93.70
53645;DHT22;39547;45.554;12.068;2023-12-20T08:52:58;4.70;93.70
53645;DHT22;39547;45.554;12.068;2023-12-20T08:59:00;4.80;94.20
53645;DHT22;39547;45.554;12.068;2023-12-20T09:05:02;5.00;94.40
53645;DHT22;39547;45.554;12.068;2023-12-20T09:11:04;5.10;94.50
53645;DHT22;39547;45.554;12.068;2023-12-20T09:17:05;5.20;94.50
53645;DHT22;39547;45.554;12.068;2023-12-20T09:23:09;5.40;94.50
53645;DHT22;39547;45.554;12.068;2023-12-20T09:29:11;5.50;94.50
53645;DHT22;39547;45.554;12.068;2023-12-20T09:35:16;5.60;94.40
53645;DHT22;39547;45.554;12.068;2023-12-20T09:41:18;5.80;94.30
53645;DHT22;39547;45.554;12.068;2023-12-20T09:47:20;5.90;94.30
53645;DHT22;39547;45.554;12.068;2023-12-20T09:53:25;6.00;94.60
53645;DHT22;39547;45.554;12.068;2023-12-20T09:59:30;6.20;94.70
53645;DHT22;39547;45.554;12.068;2023-12-20T10:05:33;6.40;94.90
53645;DHT22;39547;45.554;12.068;2023-12-20T10:11:38;6.50;94.90
53645;DHT22;39547;45.554;12.068;2023-12-20T10:17:40;6.60;94.70
53645;DHT22;39547;45.554;12.068;2023-12-20T10:23:41;6.50;94.10
53645;DHT22;39547;45.554;12.068;2023-12-20T10:29:44;6.50;94.30
53645;DHT22;39547;45.554;12.068;2023-12-20T10:35:45;6.50;94.50
53645;DHT22;39547;45.554;12.068;2023-12-20T10:41:49;6.60;94.70
53645;DHT22;39547;45.554;12.068;2023-12-20T10:47:51;6.70;94.60
53645;DHT22;39547;45.554;12.068;2023-12-20T10:53:56;6.70;94.20
53645;DHT22;39547;45.554;12.068;2023-12-20T11:00:01;6.70;94.30
53645;DHT22;39547;45.554;12.068;2023-12-20T11:06:10;6.90;94.00
53645;DHT22;39547;45.554;12.068;2023-12-20T11:12:18;7.00;94.30
53645;DHT22;39547;45.554;12.068;2023-12-20T11:18:31;7.10;93.20
53645;DHT22;39547;45.554;12.068;2023-12-20T11:24:33;7.20;94.00
53645;DHT22;39547;45.554;12.068;2023-12-20T11:30:46;7.20;94.10
53645;DHT22;39547;45.554;12.068;2023-12-20T11:36:48;7.20;93.90
53645;DHT22;39547;45.554;12.068;2023-12-20T11:42:50;7.30;93.90
53645;DHT22;39547;45.554;12.068;2023-12-20T11:48:55;7.30;93.90
53645;DHT22;39547;45.554;12.068;2023-12-20T11:54:57;7.40;94.10
53645;DHT22;39547;45.554;12.068;2023-12-20T12:00:59;7.50;94.20
53645;DHT22;39547;45.554;12.068;2023-12-20T12:07:00;7.50;93.90
53645;DHT22;39547;45.554;12.068;2023-12-20T12:13:02;7.60;94.10
53645;DHT22;39547;45.554;12.068;2023-12-20T12:19:03;7.70;94.10
53645;DHT22;39547;45.554;12.068;2023-12-20T12:25:12;7.70;94.10
53645;DHT22;39547;45.554;12.068;2023-12-20T12:31:14;7.70;94.10
53645;DHT22;39547;45.554;12.068;2023-12-20T12:37:19;7.70;94.10
53645;DHT22;39547;45.554;12.068;2023-12-20T12:43:20;7.70;94.00
53645;DHT22;39547;45.554;12.068;2023-12-20T12:49:23;7.70;94.00
53645;DHT22;39547;45.554;12.068;2023-12-20T12:55:25;7.70;94.00
53645;DHT22;39547;45.554;12.068;2023-12-20T13:01:26;7.70;93.50
53645;DHT22;39547;45.554;12.068;2023-12-20T13:07:28;7.70;93.80
53645;DHT22;39547;45.554;12.068;2023-12-20T13:13:31;7.60;93.80
53645;DHT22;39547;45.554;12.068;2023-12-20T13:19:32;7.70;93.60
53645;DHT22;39547;45.554;12.068;2023-12-20T13:25:34;7.70;93.30
53645;DHT22;39547;45.554;12.068;2023-12-20T13:31:35;7.70;93.50
53645;DHT22;39547;45.554;12.068;2023-12-20T13:37:38;7.80;93.70
53645;DHT22;39547;45.554;12.068;2023-12-20T13:43:40;7.80;93.60
53645;DHT22;39547;45.554;12.068;2023-12-20T13:49:44;7.80;93.70
53645;DHT22;39547;45.554;12.068;2023-12-20T13:55:46;7.90;93.80
53645;DHT22;39547;45.554;12.068;2023-12-20T14:01:48;8.00;93.80
53645;DHT22;39547;45.554;12.068;2023-12-20T14:07:51;8.10;93.80
53645;DHT22;39547;45.554;12.068;2023-12-20T14:13:54;8.00;93.60
53645;DHT22;39547;45.554;12.068;2023-12-20T14:19:59;8.10;93.70
53645;DHT22;39547;45.554;12.068;2023-12-20T14:26:02;8.10;93.70
53645;DHT22;39547;45.554;12.068;2023-12-20T14:32:04;8.10;93.70
53645;DHT22;39547;45.554;12.068;2023-12-20T14:38:07;8.00;93.70
53645;DHT22;39547;45.554;12.068;2023-12-20T14:44:09;8.00;93.70
53645;DHT22;39547;45.554;12.068;2023-12-20T14:50:12;7.90;93.80
53645;DHT22;39547;45.554;12.068;2023-12-20T14:56:19;7.80;93.80
53645;DHT22;39547;45.554;12.068;2023-12-20T15:02:22;7.80;93.90
53645;DHT22;39547;45.554;12.068;2023-12-20T15:08:24;7.70;93.80
53645;DHT22;39547;45.554;12.068;2023-12-20T15:14:26;7.60;93.80
53645;DHT22;39547;45.554;12.068;2023-12-20T15:20:29;7.60;93.90
53645;DHT22;39547;45.554;12.068;2023-12-20T15:26:37;7.60;94.00
53645;DHT22;39547;45.554;12.068;2023-12-20T15:32:39;7.50;94.00
53645;DHT22;39547;45.554;12.068;2023-12-20T15:38:41;7.40;93.90
53645;DHT22;39547;45.554;12.068;2023-12-20T15:44:43;7.20;93.90
53645;DHT22;39547;45.554;12.068;2023-12-20T15:50:45;7.10;93.90
53645;DHT22;39547;45.554;12.068;2023-12-20T15:56:46;7.00;93.90
53645;DHT22;39547;45.554;12.068;2023-12-20T16:02:49;6.90;93.80
53645;DHT22;39547;45.554;12.068;2023-12-20T16:08:50;6.80;93.90
53645;DHT22;39547;45.554;12.068;2023-12-20T16:14:53;6.80;94.10
53645;DHT22;39547;45.554;12.068;2023-12-20T16:20:54;6.90;94.10
53645;DHT22;39547;45.554;12.068;2023-12-20T16:26:57;6.90;94.20
53645;DHT22;39547;45.554;12.068;2023-12-20T16:32:59;7.00;94.20
53645;DHT22;39547;45.554;12.068;2023-12-20T16:39:00;7.00;94.20
53645;DHT22;39547;45.554;12.068;2023-12-20T16:45:02;7.00;94.20
53645;DHT22;39547;45.554;12.068;2023-12-20T16:51:05;7.00;94.00
53645;DHT22;39547;45.554;12.068;2023-12-20T16:57:06;7.00;94.10
53645;DHT22;39547;45.554;12.068;2023-12-20T17:03:08;7.10;94.10
53645;DHT22;39547;45.554;12.068;2023-12-20T17:09:10;7.10;94.00
53645;DHT22;39547;45.554;12.068;2023-12-20T17:15:12;7.00;94.00
53645;DHT22;39547;45.554;12.068;2023-12-20T17:21:17;7.00;94.00
53645;DHT22;39547;45.554;12.068;2023-12-20T17:27:20;7.00;94.00
53645;DHT22;39547;45.554;12.068;2023-12-20T17:33:21;7.00;94.00
53645;DHT22;39547;45.554;12.068;2023-12-20T17:39:23;6.90;94.00
53645;DHT22;39547;45.554;12.068;2023-12-20T17:45:24;6.90;93.90
53645;DHT22;39547;45.554;12.068;2023-12-20T17:51:26;6.80;93.60
53645;DHT22;39547;45.554;12.068;2023-12-20T17:57:28;6.80;93.80
53645;DHT22;39547;45.554;12.068;2023-12-20T18:03:29;6.80;93.90
53645;DHT22;39547;45.554;12.068;2023-12-20T18:09:31;6.70;93.70
53645;DHT22;39547;45.554;12.068;2023-12-20T18:15:32;6.70;93.80
53645;DHT22;39547;45.554;12.068;2023-12-20T18:21:34;6.60;93.80
53645;DHT22;39547;45.554;12.068;2023-12-20T18:27:36;6.60;93.70
53645;DHT22;39547;45.554;12.068;2023-12-20T18:33:38;6.50;93.60
53645;DHT22;39547;45.554;12.068;2023-12-20T18:39:40;6.40;93.70
53645;DHT22;39547;45.554;12.068;2023-12-20T18:45:42;6.40;93.60
53645;DHT22;39547;45.554;12.068;2023-12-20T18:51:44;6.20;93.50
53645;DHT22;39547;45.554;12.068;2023-12-20T18:57:46;6.20;93.50
53645;DHT22;39547;45.554;12.068;2023-12-20T19:03:48;6.20;93.50
53645;DHT22;39547;45.554;12.068;2023-12-20T19:09:50;6.10;93.50
53645;DHT22;39547;45.554;12.068;2023-12-20T19:15:52;6.00;93.50
53645;DHT22;39547;45.554;12.068;2023-12-20T19:21:54;6.00;93.40
53645;DHT22;39547;45.554;12.068;2023-12-20T19:27:56;6.00;93.30
53645;DHT22;39547;45.554;12.068;2023-12-20T19:33:58;5.80;93.30
53645;DHT22;39547;45.554;12.068;2023-12-20T19:40:00;5.80;93.30
53645;DHT22;39547;45.554;12.068;2023-12-20T19:46:02;5.70;93.10
53645;DHT22;39547;45.554;12.068;2023-12-20T19:52:03;5.70;93.20
53645;DHT22;39547;45.554;12.068;2023-12-20T19:58:05;5.60;92.90
53645;DHT22;39547;45.554;12.068;2023-12-20T20:04:07;5.50;93.10
53645;DHT22;39547;45.554;12.068;2023-12-20T20:10:09;5.50;93.20
53645;DHT22;39547;45.554;12.068;2023-12-20T20:16:11;5.50;93.40
53645;DHT22;39547;45.554;12.068;2023-12-20T20:22:12;5.60;93.40
53645;DHT22;39547;45.554;12.068;2023-12-20T20:28:14;5.50;93.30
53645;DHT22;39547;45.554;12.068;2023-12-20T20:34:17;5.60;93.50
53645;DHT22;39547;45.554;12.068;2023-12-20T20:40:20;5.60;93.50
53645;DHT22;39547;45.554;12.068;2023-12-20T20:46:22;5.60;93.30
53645;DHT22;39547;45.554;12.068;2023-12-20T20:52:27;5.50;93.40
53645;DHT22;39547;45.554;12.068;2023-12-20T20:58:29;5.60;93.40
53645;DHT22;39547;45.554;12.068;2023-12-20T21:04:31;5.50;93.30
53645;DHT22;39547;45.554;12.068;2023-12-20T21:10:33;5.50;93.10
53645;DHT22;39547;45.554;12.068;2023-12-20T21:16:34;5.30;91.80
53645;DHT22;39547;45.554;12.068;2023-12-20T21:22:36;5.30;92.70
53645;DHT22;39547;45.554;12.068;2023-12-20T21:28:38;5.30;92.90
53645;DHT22;39547;45.554;12.068;2023-12-20T21:34:39;5.30;92.90
53645;DHT22;39547;45.554;12.068;2023-12-20T21:40:41;5.20;92.90
53645;DHT22;39547;45.554;12.068;2023-12-20T21:46:42;5.30;92.90
53645;DHT22;39547;45.554;12.068;2023-12-20T21:52:45;5.30;93.00
53645;DHT22;39547;45.554;12.068;2023-12-20T21:58:46;5.30;92.90
53645;DHT22;39547;45.554;12.068;2023-12-20T22:04:48;5.30;92.70
53645;DHT22;39547;45.554;12.068;2023-12-20T22:10:49;5.40;93.10
53645;DHT22;39547;45.554;12.068;2023-12-20T22:16:52;5.40;92.30
53645;DHT22;39547;45.554;12.068;2023-12-20T22:22:53;5.40;92.80
53645;DHT22;39547;45.554;12.068;2023-12-20T22:28:55;5.40;93.10
53645;DHT22;39547;45.554;12.068;2023-12-20T22:34:56;5.40;92.60
53645;DHT22;39547;45.554;12.068;2023-12-20T22:40:58;5.30;92.40
53645;DHT22;39547;45.554;12.068;2023-12-20T22:47:00;5.30;92.70
53645;DHT22;39547;45.554;12.068;2023-12-20T22:53:02;5.30;92.90
53645;DHT22;39547;45.554;12.068;2023-12-20T22:59:04;5.30;93.00
53645;DHT22;39547;45.554;12.068;2023-12-20T23:05:05;5.20;92.80
53645;DHT22;39547;45.554;12.068;2023-12-20T23:11:07;5.20;92.70
53645;DHT22;39547;45.554;12.068;2023-12-20T23:17:09;5.10;92.90
53645;DHT22;39547;45.554;12.068;2023-12-20T23:23:10;5.00;92.90
53645;DHT22;39547;45.554;12.068;2023-12-20T23:29:12;5.00;93.00
53645;DHT22;39547;45.554;12.068;2023-12-20T23:35:13;4.90;91.00
53645;DHT22;39547;45.554;12.068;2023-12-20T23:41:16;4.80;92.10
53645;DHT22;39547;45.554;12.068;2023-12-20T23:47:17;4.80;92.20
53645;DHT22;39547;45.554;12.068;2023-12-20T23:53:19;4.80;92.70
53645;DHT22;39547;45.554;12.068;2023-12-20T23:59:20;4.90;92.90
